sensor_id;sensor_type;location;lat;lon;timestamp;pressure;altitude;pressure_sealevel;temperature;humidity
2036;BME280;23642;42.658;23.350;2022-10-03T04:00:54;51383.25;;;-146.31;99.13
2036;BME280;23642;42.658;23.350;2022-10-03T04:11:14;51383.25;;;-146.31;99.16
2036;BME280;23642;42.658;23.350;2022-10-03T04:30:01;51319.31;;;-146.31;98.84
2036;BME280;23642;42.658;23.350;2022-10-03T04:32:45;51335.81;;;-146.31;98.91
2036;BME280;23642;42.658;23.350;2022-10-03T04:35:28;51323.44;;;-146.31;98.59
2036;BME280;23642;42.658;23.350;2022-10-03T04:43:18;51273.94;;;-146.31;98.46
2036;BME280;23642;42.658;23.350;2022-10-03T06:02:39;51703.03;;;-146.31;84.58
2036;BME280;23642;42.658;23.350;2022-10-03T06:05:29;51744.31;;;-146.31;82.41
2036;BME280;23642;42.658;23.350;2022-10-03T06:08:15;51791.75;;;-146.31;84.07
2036;BME280;23642;42.658;23.350;2022-10-03T06:11:28;51824.75;;;-146.31;84.04
2036;BME280;23642;42.658;23.350;2022-10-03T07:37:32;51868.09;;;-146.31;93.24
2036;BME280;23642;42.658;23.350;2022-10-03T07:40:50;51888.72;;;-146.31;92.52
2036;BME280;23642;42.658;23.350;2022-10-03T07:43:50;51870.16;;;-146.31;92.99
2036;BME280;23642;42.658;23.350;2022-10-03T07:46:48;51822.69;;;-146.31;93.53
2036;BME280;23642;42.658;23.350;2022-10-03T07:49:52;51744.31;;;-146.31;94.30
2036;BME280;23642;42.658;23.350;2022-10-03T08:20:57;51657.66;;;-146.31;92.21
2036;BME280;23642;42.658;23.350;2022-10-03T08:37:23;51630.81;;;-146.31;90.83
2036;BME280;23642;42.658;23.350;2022-10-03T08:40:29;51606.06;;;-146.31;91.07
2036;BME280;23642;42.658;23.350;2022-10-03T08:46:20;51604.00;;;-146.31;90.37
2036;BME280;23642;42.658;23.350;2022-10-03T08:52:27;51608.13;;;-146.31;88.89
2036;BME280;23642;42.658;23.350;2022-10-03T08:55:39;51637.00;;;-146.31;88.46
2036;BME280;23642;42.658;23.350;2022-10-03T09:01:33;51571.00;;;-146.31;86.63
2036;BME280;23642;42.658;23.350;2022-10-03T09:34:46;51715.41;;;-146.31;81.29
2036;BME280;23642;42.658;23.350;2022-10-03T09:43:44;51727.78;;;-146.31;82.55
2036;BME280;23642;42.658;23.350;2022-10-03T09:46:39;51655.59;;;-146.31;81.77
2036;BME280;23642;42.658;23.350;2022-10-03T09:49:56;51700.97;;;-146.31;79.62
2036;BME280;23642;42.658;23.350;2022-10-03T09:52:49;51769.06;;;-146.31;79.88
2036;BME280;23642;42.658;23.350;2022-10-03T09:55:39;51742.25;;;-146.31;80.73
2036;BME280;23642;42.658;23.350;2022-10-03T09:58:42;51795.88;;;-146.31;80.38
2036;BME280;23642;42.658;23.350;2022-10-03T10:01:23;51828.88;;;-146.31;80.04
2036;BME280;23642;42.658;23.350;2022-10-03T10:07:29;51913.47;;;-146.31;77.35
2036;BME280;23642;42.658;23.350;2022-10-03T10:14:25;51998.09;;;-146.31;73.04
2036;BME280;23642;42.658;23.350;2022-10-03T10:23:45;52059.97;;;-146.31;71.20
2036;BME280;23642;42.658;23.350;2022-10-03T10:36:12;52179.66;;;-146.31;66.93
2036;BME280;23642;42.658;23.350;2022-10-03T10:45:37;52414.91;;;-146.31;67.26
2036;BME280;23642;42.658;23.350;2022-10-03T10:54:49;52423.16;;;-146.31;67.78
2036;BME280;23642;42.658;23.350;2022-10-03T10:57:28;52499.50;;;-146.31;68.05
2036;BME280;23642;42.658;23.350;2022-10-03T11:00:17;52474.75;;;-146.31;68.92
2036;BME280;23642;42.658;23.350;2022-10-03T11:03:30;52542.84;;;-146.31;67.78
2036;BME280;23642;42.658;23.350;2022-10-03T11:06:48;52491.25;;;-146.31;68.41
2036;BME280;23642;42.658;23.350;2022-10-03T11:13:09;52507.75;;;-146.31;68.15
2036;BME280;23642;42.658;23.350;2022-10-03T12:23:24;52751.28;;;-146.31;70.55
2036;BME280;23642;42.658;23.350;2022-10-03T12:30:00;52683.19;;;-146.31;69.28
2036;BME280;23642;42.658;23.350;2022-10-03T14:55:15;53775.09;;;-146.31;54.25
2036;BME280;23642;42.658;23.350;2022-10-03T14:58:01;53766.81;;;-146.31;55.45
2036;BME280;23642;42.658;23.350;2022-10-03T15:00:39;53766.81;;;-146.31;56.59
2036;BME280;23642;42.658;23.350;2022-10-03T15:03:36;53744.13;;;-146.31;58.62
2036;BME280;23642;42.658;23.350;2022-10-03T15:47:42;53787.47;;;-146.31;62.31
2036;BME280;23642;42.658;23.350;2022-10-03T15:50:17;53770.97;;;-146.31;62.26
2036;BME280;23642;42.658;23.350;2022-10-03T15:52:55;53795.72;;;-146.31;62.13
2036;BME280;23642;42.658;23.350;2022-10-03T15:55:38;53795.72;;;-146.31;62.86
2036;BME280;23642;42.658;23.350;2022-10-03T15:58:16;53787.47;;;-146.31;63.61
2036;BME280;23642;42.658;23.350;2022-10-03T16:00:52;53808.13;;;-146.31;62.95
2036;BME280;23642;42.658;23.350;2022-10-03T16:03:28;53839.09;;;-146.31;62.57
2036;BME280;23642;42.658;23.350;2022-10-03T16:06:04;53843.22;;;-146.31;62.49
2036;BME280;23642;42.658;23.350;2022-10-03T16:08:42;53851.47;;;-146.31;61.91
2036;BME280;23642;42.658;23.350;2022-10-03T16:11:20;53874.19;;;-146.31;61.89
2036;BME280;23642;42.658;23.350;2022-10-03T16:13:58;53861.78;;;-146.31;61.61
2036;BME280;23642;42.658;23.350;2022-10-03T16:16:35;53880.38;;;-146.31;61.14
2036;BME280;23642;42.658;23.350;2022-10-03T16:19:21;53890.69;;;-146.31;60.17
2036;BME280;23642;42.658;23.350;2022-10-03T16:21:54;53903.09;;;-146.31;60.08
2036;BME280;23642;42.658;23.350;2022-10-03T16:24:29;53888.63;;;-146.31;60.28
2036;BME280;23642;42.658;23.350;2022-10-03T16:27:05;53913.41;;;-146.31;60.08
2036;BME280;23642;42.658;23.350;2022-10-03T16:29:34;53882.44;;;-146.31;60.98
2036;BME280;23642;42.658;23.350;2022-10-03T16:32:05;53909.28;;;-146.31;60.27
2036;BME280;23642;42.658;23.350;2022-10-03T16:34:35;53886.56;;;-146.31;60.36
2036;BME280;23642;42.658;23.350;2022-10-03T16:37:15;53886.56;;;-146.31;60.41
2036;BME280;23642;42.658;23.350;2022-10-03T16:39:51;53898.94;;;-146.31;60.41
2036;BME280;23642;42.658;23.350;2022-10-03T16:42:22;53890.69;;;-146.31;60.45
2036;BME280;23642;42.658;23.350;2022-10-03T16:44:52;53898.94;;;-146.31;60.58
2036;BME280;23642;42.658;23.350;2022-10-03T16:47:30;53880.38;;;-146.31;60.85
2036;BME280;23642;42.658;23.350;2022-10-03T16:50:02;53878.31;;;-146.31;61.11
2036;BME280;23642;42.658;23.350;2022-10-03T16:52:48;53894.81;;;-146.31;61.88
2036;BME280;23642;42.658;23.350;2022-10-03T16:55:19;53894.81;;;-146.31;62.59
2036;BME280;23642;42.658;23.350;2022-10-03T16:57:50;53884.50;;;-146.31;62.81
2036;BME280;23642;42.658;23.350;2022-10-03T17:00:23;53884.50;;;-146.31;62.83
2036;BME280;23642;42.658;23.350;2022-10-03T17:02:53;53849.41;;;-146.31;62.84
2036;BME280;23642;42.658;23.350;2022-10-03T17:05:22;53857.66;;;-146.31;63.35
2036;BME280;23642;42.658;23.350;2022-10-03T17:07:53;53849.41;;;-146.31;63.40
2036;BME280;23642;42.658;23.350;2022-10-03T17:10:33;53847.34;;;-146.31;63.93
2036;BME280;23642;42.658;23.350;2022-10-03T17:13:09;53841.16;;;-146.31;63.73
2036;BME280;23642;42.658;23.350;2022-10-03T17:15:44;53849.41;;;-146.31;64.11
2036;BME280;23642;42.658;23.350;2022-10-03T17:18:19;53828.75;;;-146.31;64.10
2036;BME280;23642;42.658;23.350;2022-10-03T17:20:54;53839.09;;;-146.31;64.06
2036;BME280;23642;42.658;23.350;2022-10-03T17:23:33;53847.34;;;-146.31;63.85
2036;BME280;23642;42.658;23.350;2022-10-03T17:26:07;53841.16;;;-146.31;64.40
2036;BME280;23642;42.658;23.350;2022-10-03T17:28:38;53845.28;;;-146.31;64.57
2036;BME280;23642;42.658;23.350;2022-10-03T17:31:28;53857.66;;;-146.31;64.88
2036;BME280;23642;42.658;23.350;2022-10-03T17:34:03;53872.13;;;-146.31;65.20
2036;BME280;23642;42.658;23.350;2022-10-03T17:39:52;53861.78;;;-146.31;67.29
2036;BME280;23642;42.658;23.350;2022-10-03T17:42:32;53851.47;;;-146.31;67.62
2036;BME280;23642;42.658;23.350;2022-10-03T17:45:13;53872.13;;;-146.31;68.03
2036;BME280;23642;42.658;23.350;2022-10-03T17:47:53;53855.59;;;-146.31;67.41
2036;BME280;23642;42.658;23.350;2022-10-03T17:50:26;53880.38;;;-146.31;66.34
2036;BME280;23642;42.658;23.350;2022-10-03T17:52:56;53874.19;;;-146.31;65.53
2036;BME280;23642;42.658;23.350;2022-10-03T17:55:30;53874.19;;;-146.31;65.91
2036;BME280;23642;42.658;23.350;2022-10-03T17:58:04;53882.44;;;-146.31;65.08
2036;BME280;23642;42.658;23.350;2022-10-03T18:00:58;53894.81;;;-146.31;64.17
2036;BME280;23642;42.658;23.350;2022-10-03T18:03:28;53919.59;;;-146.31;64.30
2036;BME280;23642;42.658;23.350;2022-10-03T18:06:01;53929.91;;;-146.31;64.20
2036;BME280;23642;42.658;23.350;2022-10-03T18:08:30;53917.53;;;-146.31;64.23
2036;BME280;23642;42.658;23.350;2022-10-03T18:11:02;53927.84;;;-146.31;65.05
2036;BME280;23642;42.658;23.350;2022-10-03T18:13:34;53919.59;;;-146.31;65.11
2036;BME280;23642;42.658;23.350;2022-10-03T18:16:14;53934.06;;;-146.31;65.50
2036;BME280;23642;42.658;23.350;2022-10-03T18:19:03;53938.19;;;-146.31;65.48
2036;BME280;23642;42.658;23.350;2022-10-03T18:21:45;53948.50;;;-146.31;65.50
2036;BME280;23642;42.658;23.350;2022-10-03T18:24:26;53950.56;;;-146.31;65.18
2036;BME280;23642;42.658;23.350;2022-10-03T18:27:09;53960.88;;;-146.31;65.01
2036;BME280;23642;42.658;23.350;2022-10-03T18:29:48;53952.63;;;-146.31;64.81
2036;BME280;23642;42.658;23.350;2022-10-03T18:32:18;53987.72;;;-146.31;64.87
2036;BME280;23642;42.658;23.350;2022-10-03T18:34:58;53956.75;;;-146.31;64.70
2036;BME280;23642;42.658;23.350;2022-10-03T18:40:31;53967.09;;;-146.31;64.83
2036;BME280;23642;42.658;23.350;2022-10-03T18:43:03;53969.16;;;-146.31;65.30
2036;BME280;23642;42.658;23.350;2022-10-03T18:45:35;53985.66;;;-146.31;65.78
2036;BME280;23642;42.658;23.350;2022-10-03T18:48:08;53962.94;;;-146.31;65.38
2036;BME280;23642;42.658;23.350;2022-10-03T18:50:47;53981.53;;;-146.31;65.35
2036;BME280;23642;42.658;23.350;2022-10-03T18:53:19;53948.50;;;-146.31;65.18
2036;BME280;23642;42.658;23.350;2022-10-03T18:55:56;53965.03;;;-146.31;65.08
2036;BME280;23642;42.658;23.350;2022-10-03T18:58:28;53962.94;;;-146.31;65.48
2036;BME280;23642;42.658;23.350;2022-10-03T19:04:12;53973.28;;;-146.31;65.80
2036;BME280;23642;42.658;23.350;2022-10-03T19:10:36;53973.28;;;-146.31;66.45
2036;BME280;23642;42.658;23.350;2022-10-03T19:13:12;53993.91;;;-146.31;66.48
2036;BME280;23642;42.658;23.350;2022-10-03T19:18:41;53950.56;;;-146.31;67.43
2036;BME280;23642;42.658;23.350;2022-10-03T19:21:13;53973.28;;;-146.31;66.89
2036;BME280;23642;42.658;23.350;2022-10-03T19:23:46;53973.28;;;-146.31;67.80
2036;BME280;23642;42.658;23.350;2022-10-03T19:26:21;53989.78;;;-146.31;67.80
2036;BME280;23642;42.658;23.350;2022-10-03T19:28:51;53981.53;;;-146.31;67.57
2036;BME280;23642;42.658;23.350;2022-10-03T19:31:24;53973.28;;;-146.31;67.81
2036;BME280;23642;42.658;23.350;2022-10-03T19:33:57;53985.66;;;-146.31;67.71
2036;BME280;23642;42.658;23.350;2022-10-03T19:36:42;53977.41;;;-146.31;68.17
2036;BME280;23642;42.658;23.350;2022-10-03T19:39:12;53985.66;;;-146.31;68.11
2036;BME280;23642;42.658;23.350;2022-10-03T19:41:59;54002.19;;;-146.31;68.18
2036;BME280;23642;42.658;23.350;2022-10-03T19:45:03;54000.13;;;-146.31;68.60
2036;BME280;23642;42.658;23.350;2022-10-03T19:47:33;53993.91;;;-146.31;68.68
2036;BME280;23642;42.658;23.350;2022-10-03T19:50:07;53993.91;;;-146.31;68.25
2036;BME280;23642;42.658;23.350;2022-10-03T19:52:38;53983.59;;;-146.31;67.97
2036;BME280;23642;42.658;23.350;2022-10-03T19:55:14;53998.06;;;-146.31;67.68
2036;BME280;23642;42.658;23.350;2022-10-03T19:57:57;53991.84;;;-146.31;68.28
2036;BME280;23642;42.658;23.350;2022-10-03T20:00:27;54002.19;;;-146.31;67.90
2036;BME280;23642;42.658;23.350;2022-10-03T20:03:09;54006.31;;;-146.31;68.07
2036;BME280;23642;42.658;23.350;2022-10-03T20:05:57;54002.19;;;-146.31;68.48
2036;BME280;23642;42.658;23.350;2022-10-03T20:08:43;54006.31;;;-146.31;68.58
2036;BME280;23642;42.658;23.350;2022-10-03T20:11:27;54002.19;;;-146.31;68.18
2036;BME280;23642;42.658;23.350;2022-10-03T20:13:56;54010.44;;;-146.31;68.03
2036;BME280;23642;42.658;23.350;2022-10-03T20:16:25;54010.44;;;-146.31;68.43
2036;BME280;23642;42.658;23.350;2022-10-03T20:19:04;54002.19;;;-146.31;67.40
2036;BME280;23642;42.658;23.350;2022-10-03T20:21:32;54002.19;;;-146.31;67.36
2036;BME280;23642;42.658;23.350;2022-10-03T20:24:00;54010.44;;;-146.31;67.15
2036;BME280;23642;42.658;23.350;2022-10-03T20:26:34;54039.34;;;-146.31;67.30
2036;BME280;23642;42.658;23.350;2022-10-03T20:29:25;54018.69;;;-146.31;67.55
2036;BME280;23642;42.658;23.350;2022-10-03T20:31:59;54049.66;;;-146.31;66.89
2036;BME280;23642;42.658;23.350;2022-10-03T20:34:28;54064.13;;;-146.31;67.01
2036;BME280;23642;42.658;23.350;2022-10-03T20:37:16;54039.34;;;-146.31;66.14
2036;BME280;23642;42.658;23.350;2022-10-03T20:39:56;54055.84;;;-146.31;66.83
2036;BME280;23642;42.658;23.350;2022-10-03T20:42:28;54066.19;;;-146.31;66.52
2036;BME280;23642;42.658;23.350;2022-10-03T20:45:00;54055.84;;;-146.31;66.85
2036;BME280;23642;42.658;23.350;2022-10-03T20:47:43;54026.94;;;-146.31;66.50
2036;BME280;23642;42.658;23.350;2022-10-03T20:50:24;54060.00;;;-146.31;66.83
2036;BME280;23642;42.658;23.350;2022-10-03T20:52:54;54084.75;;;-146.31;67.02
2036;BME280;23642;42.658;23.350;2022-10-03T20:55:25;54066.19;;;-146.31;66.74
2036;BME280;23642;42.658;23.350;2022-10-03T20:58:00;54064.13;;;-146.31;66.88
2036;BME280;23642;42.658;23.350;2022-10-03T21:00:29;54068.25;;;-146.31;66.84
2036;BME280;23642;42.658;23.350;2022-10-03T21:03:03;54072.38;;;-146.31;67.41
2036;BME280;23642;42.658;23.350;2022-10-03T21:05:38;54074.44;;;-146.31;68.06
2036;BME280;23642;42.658;23.350;2022-10-03T21:08:15;54064.13;;;-146.31;68.45
2036;BME280;23642;42.658;23.350;2022-10-03T21:10:49;54070.31;;;-146.31;68.31
2036;BME280;23642;42.658;23.350;2022-10-03T21:13:20;54082.69;;;-146.31;68.95
2036;BME280;23642;42.658;23.350;2022-10-03T21:15:50;54066.19;;;-146.31;68.83
2036;BME280;23642;42.658;23.350;2022-10-03T21:18:20;54055.84;;;-146.31;69.02
2036;BME280;23642;42.658;23.350;2022-10-03T21:21:00;54049.66;;;-146.31;69.89
2036;BME280;23642;42.658;23.350;2022-10-03T21:23:29;54053.78;;;-146.31;70.34
2036;BME280;23642;42.658;23.350;2022-10-03T21:25:58;54086.81;;;-146.31;70.59
2036;BME280;23642;42.658;23.350;2022-10-03T21:28:29;54064.13;;;-146.31;70.24
2036;BME280;23642;42.658;23.350;2022-10-03T21:31:25;54055.84;;;-146.31;70.63
2036;BME280;23642;42.658;23.350;2022-10-03T21:34:00;54039.34;;;-146.31;71.13
2036;BME280;23642;42.658;23.350;2022-10-03T21:36:43;54055.84;;;-146.31;71.70
2036;BME280;23642;42.658;23.350;2022-10-03T21:39:17;54041.41;;;-146.31;72.46
2036;BME280;23642;42.658;23.350;2022-10-03T21:41:55;54033.16;;;-146.31;72.65
2036;BME280;23642;42.658;23.350;2022-10-03T21:44:36;54035.22;;;-146.31;72.62
2036;BME280;23642;42.658;23.350;2022-10-03T21:47:16;54039.34;;;-146.31;72.77
2036;BME280;23642;42.658;23.350;2022-10-03T21:49:53;54029.03;;;-146.31;72.06
2036;BME280;23642;42.658;23.350;2022-10-03T21:52:32;54047.59;;;-146.31;72.08
2036;BME280;23642;42.658;23.350;2022-10-03T21:55:20;54026.94;;;-146.31;72.00
2036;BME280;23642;42.658;23.350;2022-10-03T21:57:59;54018.69;;;-146.31;72.22
2036;BME280;23642;42.658;23.350;2022-10-03T22:00:55;54024.88;;;-146.31;71.80
2036;BME280;23642;42.658;23.350;2022-10-03T22:03:29;54004.25;;;-146.31;72.38
2036;BME280;23642;42.658;23.350;2022-10-03T22:06:07;53993.91;;;-146.31;72.30
2036;BME280;23642;42.658;23.350;2022-10-03T22:08:43;53989.78;;;-146.31;71.85
2036;BME280;23642;42.658;23.350;2022-10-03T22:11:33;53998.06;;;-146.31;71.60
2036;BME280;23642;42.658;23.350;2022-10-03T22:14:15;53965.03;;;-146.31;71.82
2036;BME280;23642;42.658;23.350;2022-10-03T22:17:52;53969.16;;;-146.31;71.15
2036;BME280;23642;42.658;23.350;2022-10-03T22:20:52;53973.28;;;-146.31;71.10
2036;BME280;23642;42.658;23.350;2022-10-03T22:23:59;53977.41;;;-146.31;70.82
2036;BME280;23642;42.658;23.350;2022-10-03T22:26:34;53960.88;;;-146.31;70.68
2036;BME280;23642;42.658;23.350;2022-10-03T22:29:20;53946.44;;;-146.31;70.90
2036;BME280;23642;42.658;23.350;2022-10-03T22:31:53;53969.16;;;-146.31;70.58
2036;BME280;23642;42.658;23.350;2022-10-03T22:34:33;53965.03;;;-146.31;70.58
2036;BME280;23642;42.658;23.350;2022-10-03T22:37:03;53973.28;;;-146.31;69.97
2036;BME280;23642;42.658;23.350;2022-10-03T22:43:25;53993.91;;;-146.31;70.03
2036;BME280;23642;42.658;23.350;2022-10-03T22:49:19;53960.88;;;-146.31;69.87
2036;BME280;23642;42.658;23.350;2022-10-03T22:52:15;53991.84;;;-146.31;69.84
2036;BME280;23642;42.658;23.350;2022-10-03T22:56:38;53981.53;;;-146.31;69.67
2036;BME280;23642;42.658;23.350;2022-10-03T23:13:09;53989.78;;;-146.31;68.68
2036;BME280;23642;42.658;23.350;2022-10-03T23:21:26;54029.03;;;-146.31;68.42
2036;BME280;23642;42.658;23.350;2022-10-03T23:23:16;54008.38;;;-146.31;68.02
2036;BME280;23642;42.658;23.350;2022-10-03T23:29:02;54037.28;;;-146.31;68.11
2036;BME280;23642;42.658;23.350;2022-10-03T23:35:13;54029.03;;;-146.31;68.17
2036;BME280;23642;42.658;23.350;2022-10-03T23:41:56;54055.84;;;-146.31;67.81
2036;BME280;23642;42.658;23.350;2022-10-03T23:44:45;54039.34;;;-146.31;68.27
2036;BME280;23642;42.658;23.350;2022-10-03T23:47:14;54068.25;;;-146.31;68.23
2036;BME280;23642;42.658;23.350;2022-10-03T23:56:36;54041.41;;;-146.31;68.70
